ADDS TAF Data INFO
IDs: Format: Raw Decoded Include METARs

Data at: 1601 UTC 21 Sep 2017

Region: TOP
KATL 211552Z 2116/2218 02004KT P6SM FEW030
  FM211900 35006KT P6SM SCT050 BKN080
  FM220000 01005KT P6SM VCSH BKN060
  FM220300 04005KT P6SM SCT050 BKN150
  FM220600 06004KT P6SM FEW050 SCT150
  FM221500 08006KT P6SM SCT045 SCT200


KBOS 211516Z 2115/2218 02023G35KT P6SM FEW025 BKN045
  FM211900 02024G36KT P6SM BKN025
  FM220000 02019G33KT P6SM SCT025 BKN100
  FM220700 02017G27KT P6SM SCT100
  FM221600 03016G27KT P6SM VCSH BKN020


KBWI 211450Z 2115/2218 36003KT P6SM FEW040 FEW120

KCLE 211456Z 2115/2218 VRB03KT P6SM SKC
  FM211700 02006KT P6SM SCT050
  FM220200 00000KT P6SM SCT250
  FM220900 17003KT 6SM BR SCT250


KCLT 211458Z 2115/2212 02004KT P6SM FEW050
  FM220500 VRB03KT P6SM SCT060


KCVG 211459Z 2115/2218 17004KT P6SM FEW050
  FM212300 08004KT P6SM SCT250
  FM220900 00000KT 5SM BR SCT250
  FM221400 00000KT P6SM SCT250


KDCA 211450Z 2115/2212 36004KT P6SM FEW040 FEW150
  FM220000 05004KT P6SM FEW060 FEW250
  FM220800 34004KT P6SM FEW060 FEW250


KDEN 211458Z 2115/2218 21012G20KT P6SM SKC
  FM211700 19012KT P6SM FEW220
  FM212000 17016G27KT P6SM FEW110
  FM220200 17020G32KT P6SM FEW110
  FM221000 17014G24KT P6SM FEW110
  FM221600 17018G30KT P6SM FEW110


KDFW 211453Z 2115/2218 17013KT P6SM BKN025 BKN250
  TEMPO 2115/2116 BKN019
  FM211700 17016KT P6SM FEW040 SCT250
  FM221200 17014KT P6SM SCT017


KDTW 211456Z 2115/2218 10004KT P6SM SCT060 BKN200
  FM212300 16005KT P6SM SCT050 BKN200
  FM220800 11004KT 3SM BR SCT070 BKN200
  FM221300 16006KT P6SM BKN050
  FM221600 17006KT P6SM BKN250


KEWR 211504Z 2115/2218 36011G18KT P6SM FEW040 BKN250
  FM212300 36010KT P6SM SCT050 BKN250
  FM220500 35012KT P6SM BKN250
  FM221300 36014KT P6SM BKN100


KFLL 211458Z 2115/2212 08009KT P6SM SCT035
  FM212300 08005KT P6SM SCT035
  FM220400 VRB04KT P6SM SCT250


KIAD 211450Z 2115/2218 34005KT P6SM FEW040 FEW120
  FM220000 04004KT P6SM FEW200 FEW250
  FM220700 00000KT 4SM BR FEW060 FEW250
  FM221200 VRB03KT 5SM BR FEW040 FEW250


KIAH 211500Z 2115/2218 16008KT P6SM -RA VCTS BKN015CB
  FM211700 16008KT P6SM -TSRA VCTS BKN035CB
  FM212200 14010KT P6SM BKN050 BKN250
  FM220200 13006KT P6SM BKN250
  FM220900 10005KT P6SM SCT020


KJFK 211504Z 2115/2218 35014G21KT P6SM FEW040 BKN250
  FM212300 36010KT P6SM SCT050 BKN250
  FM220500 35012KT P6SM BKN250
  FM221300 36014KT P6SM BKN100


KLAS 211430Z 2115/2218 16010G16KT P6SM SKC
  FM211530 19018G26KT P6SM SKC
  FM212000 20025G35KT P6SM FEW080 BKN200
  FM220200 23012G18KT P6SM FEW080 FEW200
  FM220500 32012KT P6SM FEW080 FEW200


KLAX 211429Z 2114/2218 24006KT P6SM -RA SCT008 BKN013 BKN027
  FM211600 26012G22KT P6SM VCSH BKN035
  FM212100 26018G28KT P6SM BKN040
  FM220300 26012KT P6SM SKC
  FM220900 VRB03KT P6SM BKN030
  FM221500 VRB03KT P6SM BKN060


KLGA 211504Z 2115/2212 36013G20KT P6SM FEW040 BKN250
  FM212300 36010KT P6SM SCT050 BKN250
  FM220500 35012KT P6SM BKN250


KMCO 211501Z 2115/2212 04009KT P6SM SCT035 SCT250
  FM211900 05010KT P6SM SCT050 SCT250
  FM220200 03005KT P6SM FEW025 SCT250


KMDW 211457Z 2115/2212 19005KT P6SM SCT200 BKN250
  FM211700 18011KT P6SM BKN250
  FM220100 18007KT P6SM FEW250


KMEM 211502Z 2115/2212 20003KT P6SM SKC
  FM211600 21006KT P6SM FEW045
  FM220000 15005KT P6SM FEW250


KMIA 211458Z 2115/2212 06009KT P6SM SCT035
  FM212300 08005KT P6SM SCT035
  FM220400 VRB04KT P6SM SCT250


KMSP 211457Z 2115/2218 11013KT P6SM SKC
  FM211800 13013G20KT P6SM FEW035
  FM212200 13012G20KT P6SM BKN035
  FM220200 16012KT P6SM SCT050
  FM220400 15010KT P6SM BKN050 WS020/20045KT
  PROB30 2206/2211 -TSRA BKN050CB


KORD 211457Z 2115/2218 19005KT P6SM SCT200 BKN250
  FM211700 18011KT P6SM BKN250
  FM220100 18007KT P6SM FEW250


KPDX 211501Z 2115/2212 17006KT P6SM -SHRA BKN014 BKN035 OVC040
  FM211900 31005KT P6SM SCT035
  FM220200 VRB03KT P6SM SCT060


KPHL 211458Z 2115/2218 01011KT P6SM SCT250
  FM212200 34006KT P6SM BKN250
  FM221400 35010KT P6SM SCT050


KPHX 211508Z 2115/2218 14007KT P6SM SKC
  FM211800 18010G20KT P6SM SKC
  FM212000 24015G25KT P6SM SKC
  FM220300 27012KT P6SM SKC
  FM221200 13006KT P6SM FEW250


KPIT 211459Z 2115/2218 VRB03KT P6SM SCT040
  FM220900 VRB03KT 4SM BR SKC


KSAN 211524Z 2115/2218 20012G18KT P6SM VCSH SCT015 OVC025
  TEMPO 2117/2120 3SM -SHRA BKN015
  FM212100 24012G18KT P6SM SCT025 BKN035
  FM220200 27007KT P6SM SCT025 BKN035
  FM220600 VRB06KT P6SM OVC025
  FM221500 18007KT P6SM SCT025 OVC035


KSEA 211506Z 2115/2218 20004KT P6SM SCT009 OVC015
  FM211900 24004KT P6SM SCT015 BKN025 OVC040
  FM212100 33004KT P6SM SCT025 BKN040
  FM220000 34005KT P6SM SCT050
  FM220400 02005KT P6SM SCT200


KSFO 211512Z 2115/2218 27018G26KT P6SM FEW015
  FM211800 28018G25KT P6SM FEW015
  FM220600 26010KT P6SM BKN100
  FM221000 26009KT P6SM BKN050


KSLC 211539Z 2116/2218 32008KT P6SM OVC035
  FM211900 33010G18KT P6SM VCSH SCT035 BKN050
  FM220000 34010KT P6SM VCSH SCT025 BKN060
  FM220400 27008KT 6SM -RA BKN020 OVC035
  FM220700 24007KT P6SM VCSH BKN040 BKN060


KSTL 211455Z 2115/2218 18008KT P6SM BKN250
  FM211800 17008KT P6SM FEW070


KTPA 211456Z 2115/2212 VRB03KT P6SM SCT080
  FM211600 05006KT P6SM FEW070 SCT150
  FM212100 35007KT P6SM BKN050
  FM220000 03006KT P6SM BKN040